Time;durP1;ratioP1;P1;durP2;ratioP2;P2;SDS_P1;SDS_P2;PMS_P1;PMS_P2;Temp;Humidity;BMP_temperature;BMP_pressure;BME280_temperature;BME280_humidity;BME280_pressure;Samples;Min_cycle;Max_cycle;Signal;HPM_P1;HPM_P2
2022/11/17 00:01:36;;;;;;;5.90;1.30;;;;;;;7.62;100.00;97901.44;4932802;29;20163;-43
2022/11/17 00:04:03;;;;;;;1.63;1.25;;;;;;;7.60;100.00;97892.75;4941153;29;20510;-43
2022/11/17 00:06:30;;;;;;;6.20;1.73;;;;;;;7.57;100.00;97904.56;4932847;29;20066;-43
2022/11/17 00:08:56;;;;;;;6.57;2.53;;;;;;;7.54;100.00;97910.88;4946781;28;20040;-48
2022/11/17 00:11:24;;;;;;;5.07;2.10;;;;;;;7.50;100.00;97910.06;4936964;29;20093;-42
2022/11/17 00:16:36;;;;;;;10.77;5.03;;;;;;;7.41;100.00;97919.91;4933477;29;20107;-42
2022/11/17 00:21:48;;;;;;;10.60;5.75;;;;;;;7.32;100.00;97917.53;4932795;29;20054;-43
2022/11/17 00:24:16;;;;;;;12.77;6.28;;;;;;;7.27;100.00;97921.47;4946734;28;20110;-42
2022/11/17 00:27:01;;;;;;;16.65;8.90;;;;;;;7.22;100.00;97927.38;4934659;29;20058;-43
2022/11/17 00:29:28;;;;;;;12.70;8.43;;;;;;;7.15;100.00;97919.09;4931328;29;20681;-46
2022/11/17 00:34:41;;;;;;;18.27;8.80;;;;;;;7.04;100.00;97928.53;4942763;29;20177;-45
2022/11/17 00:37:09;;;;;;;15.57;10.15;;;;;;;6.97;100.00;97931.22;4941178;29;20446;-44
2022/11/17 00:39:36;;;;;;;19.85;9.73;;;;;;;6.92;100.00;97935.16;4929442;29;20087;-46
2022/11/17 00:42:03;;;;;;;22.02;11.15;;;;;;;6.87;100.00;97937.50;4936719;29;20160;-42
2022/11/17 00:44:30;;;;;;;23.80;11.68;;;;;;;6.83;100.00;97948.47;4932493;29;20058;-47
2022/11/17 00:46:57;;;;;;;19.58;10.95;;;;;;;6.80;100.00;97934.75;4932019;29;20510;-42
2022/11/17 00:49:24;;;;;;;19.95;11.35;;;;;;;6.74;100.00;97929.63;4932061;29;20561;-43
2022/11/17 00:51:55;;;;;;;20.13;11.60;;;;;;;6.72;100.00;97948.44;4949609;28;20075;-46
2022/11/17 00:54:24;;;;;;;20.75;13.23;;;;;;;6.69;100.00;97943.75;4940311;29;20483;-48
2022/11/17 00:56:51;;;;;;;19.98;10.52;;;;;;;6.69;100.00;97951.19;4931185;29;20055;-43
2022/11/17 00:59:17;;;;;;;23.15;12.75;;;;;;;6.68;100.00;97953.16;4953765;28;20044;-42
2022/11/17 01:01:44;;;;;;;25.30;13.73;;;;;;;6.68;100.00;97957.88;4932080;29;20075;-43
2022/11/17 01:04:13;;;;;;;30.35;14.73;;;;;;;6.66;100.00;97949.22;4933480;29;20127;-43
2022/11/17 01:06:47;;;;;;;23.27;12.77;;;;;;;6.64;100.00;97949.63;4937272;29;20055;-42
2022/11/17 01:09:18;;;;;;;24.20;13.95;;;;;;;6.62;100.00;97954.69;4931411;29;20520;-41
2022/11/17 01:11:46;;;;;;;26.98;12.95;;;;;;;6.60;100.00;97943.31;4933271;29;20383;-43
2022/11/17 01:14:19;;;;;;;28.33;15.20;;;;;;;6.56;100.00;97945.28;4934705;29;20063;-44
2022/11/17 01:16:46;;;;;;;26.10;13.90;;;;;;;6.49;100.00;97939.72;4932107;29;20058;-43
2022/11/17 01:19:16;;;;;;;35.55;16.05;;;;;;;6.48;100.00;97935.41;4935533;29;20039;-42
2022/11/17 01:21:43;;;;;;;29.27;14.93;;;;;;;6.46;100.00;97940.50;4930530;29;20055;-42
2022/11/17 01:24:12;;;;;;;28.02;16.10;;;;;;;6.41;100.00;97932.63;4932152;29;20150;-42
2022/11/17 01:26:39;;;;;;;21.05;13.18;;;;;;;6.41;100.00;97942.81;4933428;29;20087;-43
2022/11/17 01:29:09;;;;;;;19.90;12.32;;;;;;;6.37;100.00;97937.31;4930730;29;20118;-44
2022/11/17 01:31:38;;;;;;;17.40;12.05;;;;;;;6.33;100.00;97942.00;4924715;29;20138;-42
2022/11/17 01:34:06;;;;;;;30.27;14.13;;;;;;;6.30;100.00;97942.00;4931661;29;20060;-45
2022/11/17 01:39:23;;;;;;;26.35;15.43;;;;;;;6.22;100.00;97943.94;4928218;29;20585;-41
2022/11/17 01:41:52;;;;;;;26.92;15.70;;;;;;;6.20;100.00;97948.19;4926953;29;20054;-42
2022/11/17 01:44:40;;;;;;;27.65;15.07;;;;;;;6.12;100.00;97950.91;4931093;29;20552;-44
2022/11/17 01:47:16;;;;;;;22.15;13.50;;;;;;;6.08;100.00;97950.13;4920077;29;20130;-41
2022/11/17 01:49:44;;;;;;;22.80;14.10;;;;;;;6.02;100.00;97942.63;4928379;29;20047;-45
2022/11/17 01:52:11;;;;;;;23.38;13.77;;;;;;;5.99;100.00;97943.38;4928910;29;20048;-43
2022/11/17 01:54:41;;;;;;;18.13;12.82;;;;;;;5.97;100.00;97946.53;4942761;29;20078;-42
2022/11/17 01:57:13;;;;;;;25.40;14.07;;;;;;;5.99;100.00;97943.38;4930241;29;20540;-42
2022/11/17 01:59:42;;;;;;;;;;;;;;;5.98;100.00;97950.06;4928983;29;20052;-43
2022/11/17 02:02:09;;;;;;;20.33;13.00;;;;;;;5.99;100.00;97948.88;4933757;29;20021;-43
2022/11/17 02:04:52;;;;;;;20.33;13.43;;;;;;;5.98;100.00;97952.81;4939149;29;20048;-42
2022/11/17 02:07:27;;;;;;;20.60;12.82;;;;;;;5.97;100.00;97956.72;4931248;29;20091;-42
2022/11/17 02:09:55;;;;;;;18.38;13.40;;;;;;;5.97;100.00;97953.97;4928981;29;20098;-51
2022/11/17 02:12:26;;;;;;;25.85;13.40;;;;;;;5.95;100.00;97959.06;4935621;29;20049;-42
2022/11/17 02:14:54;;;;;;;19.38;11.73;;;;;;;5.93;100.00;97961.41;4931911;29;20047;-43
2022/11/17 02:17:23;;;;;;;19.50;13.05;;;;;;;5.91;100.00;97969.22;4933685;29;20075;-42
2022/11/17 02:20:11;;;;;;;21.27;13.45;;;;;;;5.87;100.00;97962.91;4930357;29;20056;-42
2022/11/17 02:23:24;;;;;;;23.15;13.70;;;;;;;5.86;100.00;97966.81;4931047;29;20148;-42
2022/11/17 02:25:53;;;;;;;;;;;;;;;5.84;100.00;97969.13;4926431;29;20044;-48
2022/11/17 02:28:30;;;;;;;22.88;14.40;;;;;;;5.80;100.00;97974.59;4931063;29;20023;-42
2022/11/17 02:31:05;;;;;;;21.83;13.52;;;;;;;5.77;100.00;97974.59;4930656;29;20052;-43
2022/11/17 02:33:58;;;;;;;19.70;12.82;;;;;;;5.75;100.00;97982.41;4925297;29;20052;-42
2022/11/17 02:36:35;;;;;;;27.15;13.80;;;;;;;5.72;100.00;97983.19;4930998;29;20043;-42
2022/11/17 02:39:21;;;;;;;26.60;16.00;;;;;;;5.68;100.00;97985.09;4938969;28;20050;-47
2022/11/17 02:44:02;;;;;;;22.65;13.60;;;;;;;5.62;100.00;97990.13;4929914;29;20040;-42
2022/11/17 02:45:23;;;;;;;25.33;15.32;;;;;;;5.58;100.00;97988.53;4877718;29;20056;-42
2022/11/17 02:47:53;;;;;;;24.08;15.98;;;;;;;5.54;100.00;97985.75;4931320;29;20056;-42
2022/11/17 02:50:24;;;;;;;24.65;16.17;;;;;;;5.50;100.00;97988.50;4936526;29;20066;-45
2022/11/17 02:52:54;;;;;;;24.75;16.10;;;;;;;5.46;100.00;97993.13;4934186;29;20560;-43
2022/11/17 02:55:21;;;;;;;27.58;17.27;;;;;;;5.41;100.00;97996.22;4933859;29;20055;-43
2022/11/17 02:57:48;;;;;;;28.58;16.98;;;;;;;5.36;100.00;98002.06;4934620;29;20039;-42
2022/11/17 03:03:18;;;;;;;32.33;18.90;;;;;;;5.22;100.00;98003.84;4872505;23;19931;-43
2022/11/17 03:06:02;;;;;;;31.80;19.08;;;;;;;5.19;100.00;98008.16;4932942;29;20413;-43
2022/11/17 03:08:38;;;;;;;35.45;20.42;;;;;;;5.18;100.00;98017.56;4926637;29;20490;-44
2022/11/17 03:11:07;;;;;;;35.40;21.88;;;;;;;5.15;100.00;98020.25;4932747;29;20039;-42
2022/11/17 03:13:48;;;;;;;38.25;20.13;;;;;;;5.13;100.00;98017.91;4931626;29;20060;-48
2022/11/17 03:16:36;;;;;;;40.00;21.35;;;;;;;5.09;100.00;98025.28;4927051;29;20390;-43
2022/11/17 03:19:28;;;;;;;39.22;21.52;;;;;;;5.05;100.00;98023.66;4929633;29;20091;-42
2022/11/17 03:22:15;;;;;;;41.10;21.48;;;;;;;5.00;100.00;98024.81;4930923;29;20068;-42
2022/11/17 03:24:48;;;;;;;44.00;22.42;;;;;;;4.97;100.00;98031.03;4932057;29;20130;-43
2022/11/17 03:27:29;;;;;;;37.40;20.33;;;;;;;4.93;100.00;98024.69;4933310;29;20171;-42
2022/11/17 03:30:00;;;;;;;41.27;21.07;;;;;;;4.93;100.00;98028.22;4930957;29;20127;-42
2022/11/17 03:32:32;;;;;;;51.65;23.60;;;;;;;4.87;100.00;98020.72;4930818;29;20177;-42
2022/11/17 03:35:07;;;;;;;57.00;23.30;;;;;;;4.83;100.00;98033.59;4919572;29;20036;-42
2022/11/17 03:37:38;;;;;;;56.05;21.98;;;;;;;4.80;100.00;98037.06;4930997;29;20058;-46
2022/11/17 03:40:09;;;;;;;51.42;20.27;;;;;;;4.75;100.00;98024.50;4932328;29;20422;-42
2022/11/17 03:42:40;;;;;;;65.40;22.55;;;;;;;4.77;100.00;98030.38;4933207;29;20497;-43
2022/11/17 03:45:19;;;;;;;57.85;21.67;;;;;;;4.76;100.00;98030.78;4915295;29;20119;-46
2022/11/17 03:47:50;;;;;;;83.78;21.65;;;;;;;4.67;100.00;98033.78;4916282;29;20062;-42
2022/11/17 03:50:24;;;;;;;69.67;21.63;;;;;;;4.58;100.00;98035.25;4930420;29;20502;-42
2022/11/17 03:52:51;;;;;;;56.45;21.30;;;;;;;4.56;100.00;98038.34;4931498;29;20052;-43
2022/11/17 03:55:18;;;;;;;58.45;20.63;;;;;;;4.59;100.00;98034.06;4932975;29;20051;-42
2022/11/17 03:57:57;;;;;;;56.17;21.23;;;;;;;4.60;100.00;98035.66;4933053;29;20090;-43
2022/11/17 04:00:24;;;;;;;69.28;21.90;;;;;;;4.51;100.00;98024.97;4931645;29;20134;-49
2022/11/17 04:02:54;;;;;;;67.07;20.45;;;;;;;4.39;100.00;98038.09;4931738;29;20150;-48
2022/11/17 04:05:21;;;;;;;84.78;23.23;;;;;;;4.28;100.00;98040.69;4929479;29;20043;-43
2022/11/17 04:07:48;;;;;;;89.35;22.77;;;;;;;4.23;100.00;98033.59;4931552;29;20047;-43
2022/11/17 04:10:24;;;;;;;110.63;22.20;;;;;;;4.24;100.00;98043.38;4930614;29;20065;-42
2022/11/17 04:15:56;;;;;;;62.13;20.60;;;;;;;4.18;100.00;98039.34;4926302;29;20482;-42
2022/11/17 04:18:23;;;;;;;85.53;19.10;;;;;;;4.17;100.00;98050.69;4914566;29;20788;-43
2022/11/17 04:20:52;;;;;;;52.17;17.48;;;;;;;4.12;100.00;98046.31;4931561;29;20079;-42
2022/11/17 04:23:19;;;;;;;76.97;18.80;;;;;;;4.10;100.00;98048.63;4932827;29;20645;-42
2022/11/17 04:28:40;;;;;;;55.20;19.15;;;;;;;4.15;100.00;98062.03;4932896;29;20060;-42
2022/11/17 04:31:18;;;;;;;50.50;17.80;;;;;;;4.11;100.00;98050.22;4931822;29;20144;-43
2022/11/17 04:33:47;;;;;;;39.22;17.45;;;;;;;4.09;100.00;98058.00;4932583;29;20060;-50
2022/11/17 04:36:16;;;;;;;37.55;16.85;;;;;;;4.11;100.00;98055.69;4932651;29;20052;-42
2022/11/17 04:38:48;;;;;;;39.78;17.60;;;;;;;4.16;100.00;98057.31;4932576;29;20056;-42
2022/11/17 04:44:05;;;;;;;45.83;18.58;;;;;;;4.09;100.00;98066.22;4932664;29;20048;-42
2022/11/17 04:46:33;;;;;;;38.60;16.63;;;;;;;4.10;100.00;98075.22;4930227;29;20044;-43
2022/11/17 04:49:01;;;;;;;44.70;16.27;;;;;;;4.09;100.00;98074.44;4931186;29;20142;-46
2022/11/17 04:51:29;;;;;;;48.58;17.35;;;;;;;4.08;100.00;98078.31;4930041;29;20054;-42
2022/11/17 04:53:58;;;;;;;43.45;15.57;;;;;;;4.08;100.00;98077.53;4919540;29;20134;-42
2022/11/17 04:56:26;;;;;;;53.90;16.25;;;;;;;4.06;100.00;98088.84;4930316;29;20134;-42
2022/11/17 04:58:53;;;;;;;48.13;15.55;;;;;;;4.06;100.00;98088.06;4931715;29;20046;-46
2022/11/17 05:01:22;;;;;;;50.97;16.45;;;;;;;4.08;100.00;98085.72;4923514;29;20520;-42
2022/11/17 05:03:53;;;;;;;57.67;16.48;;;;;;;4.08;100.00;98083.78;4912082;29;20082;-42
2022/11/17 05:06:34;;;;;;;69.38;15.68;;;;;;;4.08;100.00;98089.28;4909985;29;20048;-42
2022/11/17 05:09:07;;;;;;;60.75;16.00;;;;;;;4.06;100.00;98094.31;4911588;29;20439;-42
2022/11/17 05:14:23;;;;;;;40.78;14.63;;;;;;;4.10;100.00;98092.41;4911547;29;20055;-43
2022/11/17 05:17:07;;;;;;;39.15;13.10;;;;;;;4.16;100.00;98099.19;4909624;29;20051;-46
2022/11/17 05:19:45;;;;;;;46.28;15.40;;;;;;;4.22;100.00;98097.72;4908924;29;20047;-41
2022/11/17 05:25:04;;;;;;;43.55;15.43;;;;;;;4.25;100.00;98097.00;4910615;29;20043;-43
2022/11/17 05:27:32;;;;;;;33.85;15.10;;;;;;;4.28;100.00;98098.19;4906001;29;20055;-43
2022/11/17 05:30:00;;;;;;;49.67;17.48;;;;;;;4.32;100.00;98109.97;4922947;29;20395;-43
2022/11/17 05:32:27;;;;;;;48.67;14.52;;;;;;;4.30;100.00;98106.81;4910199;29;20147;-43
2022/11/17 05:34:54;;;;;;;47.80;17.85;;;;;;;4.30;100.00;98113.09;4906746;29;20443;-45
2022/11/17 05:37:20;;;;;;;58.20;15.63;;;;;;;4.26;100.00;98109.50;4909405;29;20518;-42
2022/11/17 05:39:47;;;;;;;34.75;15.68;;;;;;;4.26;100.00;98112.25;4906672;29;20834;-43
2022/11/17 05:42:14;;;;;;;53.20;16.00;;;;;;;4.27;100.00;98119.31;4912510;29;20054;-42
2022/11/17 05:44:41;;;;;;;53.70;16.08;;;;;;;4.27;100.00;98127.53;4911756;29;20509;-42
2022/11/17 05:47:08;;;;;;;45.80;15.30;;;;;;;4.25;100.00;98116.16;4912805;29;20071;-43
2022/11/17 05:49:34;;;;;;;51.65;16.33;;;;;;;4.25;100.00;98110.69;4911820;29;20056;-43
2022/11/17 05:52:01;;;;;;;55.83;16.30;;;;;;;4.21;100.00;98120.78;4912699;29;20048;-44
2022/11/17 05:54:28;;;;;;;59.00;16.45;;;;;;;4.22;100.00;98114.16;4912572;29;20052;-42
2022/11/17 05:57:01;;;;;;;45.70;14.52;;;;;;;4.21;100.00;98109.81;4912093;29;20561;-42
2022/11/17 05:59:37;;;;;;;72.22;16.63;;;;;;;4.21;100.00;98117.22;4910742;29;20036;-45
2022/11/17 06:02:13;;;;;;;60.20;17.02;;;;;;;4.23;100.00;98123.16;4920621;29;20130;-42
2022/11/17 06:04:40;;;;;;;53.55;15.82;;;;;;;4.24;100.00;98121.97;4924264;29;20067;-45
2022/11/17 06:07:07;;;;;;;59.95;16.38;;;;;;;4.25;100.00;98121.63;4931416;29;20048;-42
2022/11/17 06:09:38;;;;;;;57.50;16.17;;;;;;;4.27;100.00;98133.00;4930551;29;20510;-49
2022/11/17 06:12:04;;;;;;;56.25;16.67;;;;;;;4.27;100.00;98126.72;4911312;29;20445;-46
2022/11/17 06:14:36;;;;;;;55.45;16.17;;;;;;;4.28;100.00;98128.31;4928833;29;20047;-43
2022/11/17 06:17:10;;;;;;;56.72;17.35;;;;;;;4.29;100.00;98127.94;4927734;29;20142;-48
2022/11/17 06:19:44;;;;;;;49.65;16.70;;;;;;;4.27;100.00;98135.75;4928648;29;20513;-43
2022/11/17 06:22:11;;;;;;;78.57;18.55;;;;;;;4.28;100.00;98133.81;4930017;29;20139;-42
2022/11/17 06:24:45;;;;;;;69.55;17.15;;;;;;;4.27;100.00;98134.94;4930905;29;20051;-48
2022/11/17 06:27:15;;;;;;;46.17;15.83;;;;;;;4.26;100.00;98136.88;4933413;29;20417;-43
2022/11/17 06:29:43;;;;;;;50.40;17.70;;;;;;;4.28;100.00;98136.53;4930859;29;20078;-46
2022/11/17 06:32:13;;;;;;;85.72;17.30;;;;;;;4.28;100.00;98137.34;4913986;29;20052;-42
2022/11/17 06:34:42;;;;;;;93.38;17.95;;;;;;;4.28;100.00;98134.59;4932292;29;20066;-43
2022/11/17 06:37:10;;;;;;;56.95;15.02;;;;;;;4.31;100.00;98136.56;4932954;29;20496;-44
2022/11/17 06:39:37;;;;;;;85.45;18.10;;;;;;;4.36;100.00;98135.50;4933624;29;20055;-44
2022/11/17 06:42:03;;;;;;;48.85;15.93;;;;;;;4.36;100.00;98131.97;4916361;29;20146;-43
2022/11/17 06:44:30;;;;;;;72.45;16.75;;;;;;;4.37;100.00;98147.25;4930971;29;20048;-43
2022/11/17 06:46:57;;;;;;;60.75;16.42;;;;;;;4.36;100.00;98137.44;4929608;29;20130;-42
2022/11/17 06:49:24;;;;;;;41.80;15.55;;;;;;;4.36;100.00;98137.44;4932959;29;20051;-43
2022/11/17 06:51:51;;;;;;;66.28;18.02;;;;;;;4.39;100.00;98145.72;4930785;29;20062;-43
2022/11/17 06:54:18;;;;;;;46.55;14.95;;;;;;;4.37;100.00;98133.56;4931444;29;20498;-42
2022/11/17 06:56:45;;;;;;;66.00;17.88;;;;;;;4.37;100.00;98139.03;4932639;29;20051;-42
2022/11/17 06:59:14;;;;;;;64.97;17.13;;;;;;;4.36;100.00;98138.22;4932921;29;20570;-43
2022/11/17 07:01:41;;;;;;;40.13;16.02;;;;;;;4.37;100.00;98145.28;4928556;29;20079;-43
2022/11/17 07:04:08;;;;;;;46.50;15.52;;;;;;;4.39;100.00;98145.72;4930561;29;20051;-42
2022/11/17 07:06:36;;;;;;;55.03;14.38;;;;;;;4.40;100.00;98149.22;4932092;29;20050;-42
2022/11/17 07:09:04;;;;;;;38.05;13.73;;;;;;;4.40;100.00;98149.22;4932392;29;20036;-43
2022/11/17 07:11:33;;;;;;;59.67;16.55;;;;;;;4.39;100.00;98156.69;4930339;29;20126;-43
2022/11/17 07:14:00;;;;;;;38.63;13.73;;;;;;;4.37;100.00;98158.19;4911520;29;20075;-43
2022/11/17 07:16:28;;;;;;;39.15;14.32;;;;;;;4.35;100.00;98158.56;4933121;29;20052;-42
2022/11/17 07:18:54;;;;;;;72.45;18.50;;;;;;;4.29;100.00;98152.59;4930428;29;20513;-46
2022/11/17 07:21:21;;;;;;;41.53;14.10;;;;;;;4.29;100.00;98160.81;4930795;29;20146;-42
2022/11/17 07:23:48;;;;;;;47.05;16.77;;;;;;;4.31;100.00;98160.47;4928377;29;20152;-42
2022/11/17 07:26:15;;;;;;;43.47;13.95;;;;;;;4.30;100.00;98159.66;4931367;29;20079;-42
2022/11/17 07:28:41;;;;;;;34.40;14.45;;;;;;;4.30;100.00;98167.88;4931831;29;20640;-44
2022/11/17 07:31:08;;;;;;;43.80;15.43;;;;;;;4.29;100.00;98168.22;4929214;29;20234;-43
2022/11/17 07:33:36;;;;;;;52.85;15.40;;;;;;;4.26;100.00;98163.50;4931359;29;20413;-43
2022/11/17 07:36:08;;;;;;;38.40;14.40;;;;;;;4.25;100.00;98164.66;4912272;29;20059;-43
2022/11/17 07:38:36;;;;;;;55.03;15.82;;;;;;;4.26;100.00;98177.19;4932405;29;20082;-44
2022/11/17 07:41:05;;;;;;;60.38;14.65;;;;;;;4.24;100.00;98169.34;4930172;29;20047;-48
2022/11/17 07:43:33;;;;;;;61.17;15.15;;;;;;;4.24;100.00;98177.53;4931990;29;20047;-42
2022/11/17 07:46:09;;;;;;;50.70;15.18;;;;;;;4.22;100.00;98176.34;4932569;29;20123;-43
2022/11/17 07:48:36;;;;;;;34.20;12.52;;;;;;;4.20;100.00;98179.44;4935982;29;20505;-42
2022/11/17 07:51:05;;;;;;;49.00;12.27;;;;;;;4.17;100.00;98185.66;4930705;29;20545;-43
2022/11/17 07:53:33;;;;;;;69.60;13.10;;;;;;;4.16;100.00;98189.53;4938761;29;20062;-43
2022/11/17 07:56:09;;;;;;;47.10;12.60;;;;;;;4.13;100.00;98187.53;4933044;29;20058;-43
2022/11/17 07:58:36;;;;;;;46.50;12.38;;;;;;;4.15;100.00;98195.38;4933593;29;20054;-43
2022/11/17 08:01:09;;;;;;;35.70;11.45;;;;;;;4.13;100.00;98195.75;4916307;29;20111;-44
2022/11/17 08:03:36;;;;;;;;;;;;;;;4.13;100.00;98197.72;4930880;29;20043;-42
2022/11/17 08:06:05;;;;;;;48.75;11.85;;;;;;;4.12;100.00;98199.66;4942195;29;20338;-44
2022/11/17 08:08:32;;;;;;;54.03;13.02;;;;;;;4.16;100.00;98211.44;4932086;29;20052;-42
2022/11/17 08:11:06;;;;;;;47.13;13.38;;;;;;;4.17;100.00;98209.50;4940842;29;20052;-42
2022/11/17 08:13:34;;;;;;;47.00;12.98;;;;;;;4.16;100.00;98200.50;4927218;29;20047;-43
2022/11/17 08:16:01;;;;;;;34.67;13.10;;;;;;;4.18;100.00;98203.66;4930594;29;20498;-42
2022/11/17 08:18:29;;;;;;;30.38;9.75;;;;;;;4.16;100.00;98211.44;4927114;29;20054;-43
2022/11/17 08:21:10;;;;;;;34.28;12.73;;;;;;;4.12;100.00;98207.06;4927729;29;20047;-43
2022/11/17 08:23:37;;;;;;;35.22;11.60;;;;;;;4.12;100.00;98210.59;4929763;29;20067;-43
2022/11/17 08:26:07;;;;;;;40.83;12.60;;;;;;;4.13;100.00;98211.41;4929971;29;20038;-43
2022/11/17 08:28:35;;;;;;;32.92;11.20;;;;;;;4.12;100.00;98207.88;4928228;29;20064;-43
2022/11/17 08:31:04;;;;;;;42.13;11.77;;;;;;;4.11;100.00;98219.97;4932394;29;20083;-45
2022/11/17 08:33:32;;;;;;;37.38;10.70;;;;;;;4.04;100.00;98208.88;4931412;29;20051;-44
2022/11/17 08:36:00;;;;;;;38.33;11.00;;;;;;;4.00;100.00;98208.03;4931240;29;20050;-43
2022/11/17 08:38:28;;;;;;;36.83;11.18;;;;;;;4.01;100.00;98201.41;4931372;29;20051;-45
2022/11/17 08:41:02;;;;;;;32.58;10.63;;;;;;;4.01;100.00;98215.09;4923283;29;20051;-42
2022/11/17 08:43:29;;;;;;;28.95;11.20;;;;;;;3.96;100.00;98211.84;4931927;29;20545;-42
2022/11/17 08:45:56;;;;;;;20.63;9.60;;;;;;;3.95;100.00;98218.47;4929997;29;20507;-43
2022/11/17 08:48:24;;;;;;;25.45;8.80;;;;;;;4.00;100.00;98229.13;4928948;29;20051;-42
2022/11/17 08:50:51;;;;;;;20.05;9.35;;;;;;;3.93;100.00;98223.53;4923401;29;20074;-42
2022/11/17 08:53:20;;;;;;;21.27;9.38;;;;;;;3.97;100.00;98230.63;4929784;29;20047;-52
2022/11/17 08:55:46;;;;;;;27.02;10.68;;;;;;;3.98;100.00;98217.75;4928693;29;20472;-43
2022/11/17 08:58:14;;;;;;;24.15;10.00;;;;;;;3.98;100.00;98213.06;4929962;29;20099;-46
2022/11/17 09:00:41;;;;;;;17.20;9.75;;;;;;;4.00;100.00;98223.66;4929317;29;20154;-42
2022/11/17 09:03:09;;;;;;;26.38;10.48;;;;;;;3.98;100.00;98218.53;4932010;29;20055;-43
2022/11/17 09:05:41;;;;;;;22.05;9.23;;;;;;;3.97;100.00;98222.44;4930427;29;20043;-51
2022/11/17 09:08:08;;;;;;;22.70;10.15;;;;;;;3.94;100.00;98228.66;4931710;29;20482;-42
2022/11/17 09:10:55;;;;;;;26.95;11.43;;;;;;;3.95;100.00;98230.22;4930793;29;20052;-43
2022/11/17 09:13:22;;;;;;;24.58;9.45;;;;;;;3.94;100.00;98231.38;4928424;29;20047;-48
2022/11/17 09:15:48;;;;;;;21.55;10.48;;;;;;;3.96;100.00;98239.22;4928248;29;20493;-44
2022/11/17 09:18:15;;;;;;;24.75;11.23;;;;;;;3.97;100.00;98229.88;4929690;29;20071;-43
2022/11/17 09:20:42;;;;;;;28.33;10.50;;;;;;;3.96;100.00;98239.22;4931684;29;20077;-43
2022/11/17 09:23:11;;;;;;;24.27;10.43;;;;;;;3.97;100.00;98236.13;4930835;29;20442;-44
2022/11/17 09:25:38;;;;;;;27.67;9.35;;;;;;;4.02;100.00;98233.09;4931667;29;20322;-49
2022/11/17 09:28:05;;;;;;;20.27;9.77;;;;;;;4.06;100.00;98228.47;4931048;29;20048;-44
2022/11/17 09:30:33;;;;;;;31.08;9.65;;;;;;;4.13;100.00;98236.81;4931035;29;20047;-47
2022/11/17 09:33:00;;;;;;;23.83;9.07;;;;;;;4.17;100.00;98239.63;4931669;29;20490;-43
2022/11/17 09:35:27;;;;;;;20.38;10.02;;;;;;;4.20;100.00;98238.91;4931607;29;20521;-43
2022/11/17 09:37:58;;;;;;;21.52;9.80;;;;;;;4.23;100.00;98243.66;4929489;29;20040;-42
2022/11/17 09:40:26;;;;;;;24.92;10.90;;;;;;;4.24;100.00;98240.53;4914678;29;20372;-45
2022/11/17 09:42:56;;;;;;;14.43;8.50;;;;;;;4.31;100.00;98245.38;4931262;29;20051;-43
2022/11/17 09:45:33;;;;;;;18.05;9.88;;;;;;;4.39;100.00;98257.22;4930149;29;20043;-43
2022/11/17 09:48:09;;;;;;;15.88;8.50;;;;;;;4.49;100.00;98251.94;4930907;29;20047;-45
2022/11/17 09:50:58;;;;;;;19.63;8.57;;;;;;;4.56;100.00;98264.94;4931284;29;20052;-43
2022/11/17 09:53:36;;;;;;;19.20;8.68;;;;;;;4.57;100.00;98280.25;4931174;29;20134;-45
2022/11/17 09:56:07;;;;;;;19.55;9.65;;;;;;;4.50;100.00;98274.66;4931752;29;20082;-43
2022/11/17 09:58:40;;;;;;;16.40;9.32;;;;;;;4.56;100.00;98273.97;4933295;29;20043;-45
2022/11/17 10:01:18;;;;;;;17.60;10.85;;;;;;;4.64;100.00;98280.34;4934039;29;20059;-43
2022/11/17 10:03:48;;;;;;;18.90;9.80;;;;;;;4.71;100.00;98275.00;4933852;29;20048;-44
2022/11/17 10:06:22;;;;;;;18.27;9.88;;;;;;;4.82;100.00;98282.22;4935252;29;20051;-44
2022/11/17 10:09:20;;;;;;;17.55;9.00;;;;;;;4.92;100.00;98272.63;4935292;29;20079;-43
2022/11/17 10:11:56;;;;;;;15.48;8.82;;;;;;;4.94;100.00;98278.50;4934882;29;20048;-44
2022/11/17 10:14:27;;;;;;;22.33;10.20;;;;;;;4.96;100.00;98269.91;4934455;29;20106;-44
2022/11/17 10:16:57;;;;;;;17.13;10.15;;;;;;;5.01;100.00;98283.31;4934444;29;20130;-44
2022/11/17 10:19:26;;;;;;;15.40;9.18;;;;;;;5.05;100.00;98279.47;4934922;29;20371;-45
2022/11/17 10:22:10;;;;;;;15.95;8.80;;;;;;;5.10;100.00;98281.91;4935015;29;20058;-45
2022/11/17 10:24:49;;;;;;;14.40;8.70;;;;;;;5.12;100.00;98285.06;4934949;29;20054;-44
2022/11/17 10:27:16;;;;;;;16.42;9.27;;;;;;;5.22;100.00;98278.13;4934619;29;20043;-44
2022/11/17 10:30:22;;;;;;;18.23;9.48;;;;;;;5.32;100.00;98281.03;4916770;29;20050;-46
2022/11/17 10:32:54;;;;;;;22.10;9.63;;;;;;;5.39;100.00;98289.38;4933412;29;20083;-44
2022/11/17 10:35:32;;;;;;;19.17;9.13;;;;;;;5.49;100.00;98294.22;4935292;29;20043;-44
2022/11/17 10:38:07;;;;;;;17.35;10.07;;;;;;;5.53;100.00;98289.56;4934815;29;20071;-47
2022/11/17 10:40:40;;;;;;;21.67;10.82;;;;;;;5.60;100.00;98282.59;4934590;29;20043;-45
2022/11/17 10:43:12;;;;;;;20.23;9.52;;;;;;;5.67;100.00;98293.66;4933017;29;20131;-45
2022/11/17 10:45:48;;;;;;;18.90;9.63;;;;;;;5.73;100.00;98294.94;4934605;29;20136;-44
2022/11/17 10:48:18;;;;;;;16.20;8.95;;;;;;;5.76;100.00;98303.22;4934505;29;20052;-44
2022/11/17 10:51:03;;;;;;;19.38;10.35;;;;;;;5.83;100.00;98308.00;4932243;29;22156;-44
2022/11/17 10:53:37;;;;;;;16.15;8.88;;;;;;;5.90;100.00;98297.16;4934459;29;20055;-45
2022/11/17 10:56:18;;;;;;;16.42;8.57;;;;;;;6.00;100.00;98312.97;4934580;29;20047;-45
2022/11/17 10:59:16;;;;;;;18.17;10.70;;;;;;;5.99;100.00;98303.94;4933241;29;20126;-45
2022/11/17 11:01:48;;;;;;;15.98;8.88;;;;;;;6.01;100.00;98312.56;4933973;29;20488;-44
2022/11/17 11:04:32;;;;;;;22.52;10.57;;;;;;;6.05;100.00;98320.88;4934803;29;20070;-44
2022/11/17 11:07:13;;;;;;;20.58;12.40;;;;;;;6.13;100.00;98317.03;4934842;29;20492;-45
2022/11/17 11:10:08;;;;;;;17.40;10.13;;;;;;;6.14;100.00;98318.63;4914539;29;20063;-45
2022/11/17 11:12:46;;;;;;;17.50;10.77;;;;;;;6.15;100.00;98320.19;4931491;29;20047;-46
2022/11/17 11:15:22;;;;;;;19.63;10.13;;;;;;;6.11;100.00;98316.63;4926087;29;20055;-45
2022/11/17 11:17:50;;;;;;;18.85;10.18;;;;;;;6.05;100.00;98310.69;4933965;29;20059;-47
2022/11/17 11:20:22;;;;;;;19.25;10.45;;;;;;;6.05;99.85;98309.88;4933332;29;20048;-44
2022/11/17 11:23:12;;;;;;;26.83;8.88;;;;;;;6.05;100.00;98312.63;4932295;29;20142;-45
2022/11/17 11:25:56;;;;;;;16.33;8.95;;;;;;;6.06;100.00;98305.97;4934123;29;20178;-45
2022/11/17 11:28:45;;;;;;;24.20;9.57;;;;;;;6.13;100.00;98314.28;4933757;29;20505;-45
2022/11/17 11:31:38;;;;;;;21.17;10.88;;;;;;;6.16;99.69;98319.03;4931282;29;20054;-45
2022/11/17 11:34:55;;;;;;;20.90;9.85;;;;;;;6.21;99.76;98317.91;4933893;29;20103;-45
2022/11/17 11:37:33;;;;;;;21.42;9.55;;;;;;;6.24;99.78;98314.41;4896555;29;20066;-49
2022/11/17 11:40:20;;;;;;;21.40;9.00;;;;;;;6.26;99.39;98323.06;4932491;29;20051;-45
2022/11/17 11:42:57;;;;;;;25.42;11.35;;;;;;;6.31;99.55;98311.75;4933124;29;20482;-46
2022/11/17 11:45:46;;;;;;;17.00;9.95;;;;;;;6.34;99.68;98311.78;4915600;29;20058;-45
2022/11/17 11:48:23;;;;;;;22.92;10.18;;;;;;;6.40;99.43;98320.50;4933453;29;20443;-47
2022/11/17 11:50:57;;;;;;;19.35;10.75;;;;;;;6.44;99.33;98313.84;4932935;29;20149;-45
2022/11/17 11:53:51;;;;;;;19.15;8.98;;;;;;;6.48;99.27;98317.44;4932194;29;20603;-45
2022/11/17 11:56:26;;;;;;;16.48;9.30;;;;;;;6.53;99.17;98313.56;4916704;29;20043;-47
2022/11/17 11:59:05;;;;;;;23.88;12.20;;;;;;;6.55;98.81;98316.72;4919203;29;20490;-46
2022/11/17 12:02:13;;;;;;;18.27;10.30;;;;;;;6.59;98.89;98312.06;4932249;29;20066;-45
2022/11/17 12:04:50;;;;;;;16.63;8.63;;;;;;;6.59;98.69;98312.81;4927730;29;20058;-45
2022/11/17 12:07:31;;;;;;;20.40;10.23;;;;;;;6.61;98.53;98305.00;4933082;29;20052;-45
2022/11/17 12:10:19;;;;;;;14.40;8.95;;;;;;;6.64;98.51;98309.75;4932609;29;20142;-45
2022/11/17 12:12:46;;;;;;;20.90;10.48;;;;;;;6.66;98.37;98306.63;4930459;29;20040;-44